METAR Data
IDs: Format: Raw Decoded Include TAF

Data at: 2125 UTC 08 Aug 2020

RJNT 082110Z 19009KT 130V220 9999 FEW030 BKN050 BKN130 28/22 Q1009 RMK 1CU030 5SC050 7AC130 A2980
RJNT 081200Z 02002KT 8000 FEW010 BKN070 BKN/// 26/25 Q1007
RJNT 081100Z VRB01KT 9999 FEW010 BKN070 BKN/// 27/25 Q1007
RJNT 081000Z VRB02KT 9999 FEW010 BKN060 BKN080 27/25 Q1007
RJNT 080900Z 00000KT 9999 FEW010 SCT070 BKN100 27/25 Q1007
RJNT 080800Z VRB02KT 9999 FEW020 SCT050 BKN/// 27/25 Q1007
RJNT 080700Z 01003KT 9999 VCSH FEW007 SCT050 BKN/// 27/25 Q1007
RJNT 080600Z VRB02KT 9999 FEW007 SCT150 BKN/// 27/25 Q1007
RJNT 080500Z VRB01KT 9999 FEW003 SCT030 BKN050 27/25 Q1007
RJNT 080439Z 09003KT 020V150 9999 -SHRA FEW003 SCT015 BKN030 26/25 Q1007 RMK 1ST003 3CU015 5CU030 A2976
RJNT 080400Z 09005KT 040V120 9000 -SHRA FEW003 BKN006 BKN050 26/24 Q1008
RJNT 080332Z 08004KT 050V120 8000 -SHRA FEW003 SCT010 FEW020TCU BKN060 25/24 Q1008 RMK 1ST003 3CU010 1TCU020 5SC060 A2979 TCU 5KM SE MOV NE
RJNT 080311Z 35004KT 3500 SHRA BR FEW007 BKN010 FEW020TCU BKN040 25/24 Q1009 RMK 1ST007 5CU010 1TCU020 6SC040 A2979 TCU 5KM NW MOV NE
RJNT 080300Z 33005KT 7000 -SHRA FEW007 SCT010 FEW020TCU BKN040 25/24 Q1009
RJNT 080200Z 33006KT 9999 -SHRA FEW007 SCT010 BKN060 26/24 Q1008
RJNT 080100Z 34006KT 9000 -SHRA FEW007 SCT120 OVC/// 26/23 Q1008
RJNT 080000Z VRB03KT 9000 VCSH FEW005 BKN012 BKN120 26/23 Q1008
RJNT 072322Z 05003KT 360V100 8000 VCSH FEW003 SCT008 BKN010 25/23 Q1008 RMK 1ST003 3ST008 5ST010 A2977
RJNT 072300Z 05005KT 020V080 8000 VCSH FEW003 BKN008 BKN080 25/23 Q1008
RJNT 072212Z 06004KT 010V110 5000 BR FEW002 BKN009 BKN080 25/23 Q1008 RMK 1ST002 5ST009 6AC080 A2979 9999N
RJNT 072200Z VRB02KT 5000 BR FEW002 SCT005 BKN080 25/23 Q1008
RJNT 072128Z 32003KT 270V020 3500 BR FEW001 BKN005 BKN060 25/24 Q1008 RMK 1ST001 5ST005 6SC060 A2979 9999N